createdAt,value
2019-02-19T00:00:35.242Z,17.23
2019-02-19T00:03:04.620Z,17.87
2019-02-19T00:05:33.550Z,17.20
2019-02-19T00:08:02.403Z,18.27
2019-02-19T00:10:31.200Z,16.70
2019-02-19T00:13:00.174Z,17.23
2019-02-19T00:15:29.171Z,17.47
2019-02-19T00:17:58.207Z,16.33
2019-02-19T00:20:27.038Z,17.20
2019-02-19T00:22:55.913Z,17.07
2019-02-19T00:25:24.700Z,17.10
2019-02-19T00:27:53.521Z,16.37
2019-02-19T00:30:22.429Z,17.23
2019-02-19T00:32:51.209Z,16.90
2019-02-19T00:35:20.162Z,17.67
2019-02-19T00:37:48.965Z,17.23
2019-02-19T00:40:17.875Z,17.60
2019-02-19T00:42:46.664Z,16.87
2019-02-19T00:45:16.974Z,18.03
2019-02-19T00:47:46.056Z,17.17
2019-02-19T00:50:14.914Z,16.23
2019-02-19T00:52:43.784Z,17.20
2019-02-19T00:55:12.635Z,16.47
2019-02-19T00:57:41.451Z,17.97
2019-02-19T01:00:11.460Z,16.50
2019-02-19T01:02:40.359Z,16.90
2019-02-19T01:05:09.349Z,16.27
2019-02-19T01:07:38.243Z,17.53
2019-02-19T01:10:07.515Z,16.50
2019-02-19T01:12:36.363Z,16.67
2019-02-19T01:15:06.521Z,15.90
2019-02-19T01:17:35.389Z,16.70
2019-02-19T01:20:04.922Z,16.30
2019-02-19T01:22:33.823Z,16.20
2019-02-19T01:25:02.769Z,15.87
2019-02-19T01:27:31.657Z,16.30
2019-02-19T01:30:00.597Z,17.60
2019-02-19T01:32:29.545Z,15.70
2019-02-19T01:34:58.385Z,16.87
2019-02-19T01:37:29.249Z,15.77
2019-02-19T01:39:58.113Z,14.50
2019-02-19T01:42:26.919Z,15.60
2019-02-19T01:44:55.721Z,16.03
2019-02-19T01:47:25.070Z,15.63
2019-02-19T01:49:54.061Z,16.20
2019-02-19T01:52:22.939Z,14.77
2019-02-19T01:54:51.945Z,15.80
2019-02-19T01:57:20.981Z,15.60
2019-02-19T01:59:50.061Z,15.83
2019-02-19T02:02:19.026Z,16.00
2019-02-19T02:04:47.857Z,15.27
2019-02-19T02:07:16.796Z,14.07
2019-02-19T02:09:47.015Z,15.37
2019-02-19T02:12:15.981Z,14.83
2019-02-19T02:14:44.943Z,15.90
2019-02-19T02:17:13.751Z,14.90
2019-02-19T02:19:42.583Z,15.80
2019-02-19T02:22:11.437Z,13.90
2019-02-19T02:24:40.338Z,15.83
2019-02-19T02:27:09.227Z,15.53
2019-02-19T02:29:38.145Z,15.40
2019-02-19T02:32:07.056Z,14.33
2019-02-19T02:34:35.932Z,15.03
2019-02-19T02:37:04.782Z,16.27
2019-02-19T02:39:33.730Z,15.23
2019-02-19T02:42:02.683Z,16.20
2019-02-19T02:44:31.750Z,16.73
2019-02-19T02:47:00.615Z,15.90
2019-02-19T02:49:30.668Z,16.30
2019-02-19T02:51:59.730Z,16.00
2019-02-19T02:54:28.574Z,15.50
2019-02-19T02:56:57.480Z,16.70
2019-02-19T02:59:26.371Z,16.60
2019-02-19T03:01:55.278Z,18.17
2019-02-19T03:04:24.164Z,17.23
2019-02-19T03:06:59.251Z,16.10
2019-02-19T03:09:28.284Z,14.70
2019-02-19T03:11:57.076Z,16.97
2019-02-19T03:14:26.003Z,17.37
2019-02-19T03:16:54.795Z,15.10
2019-02-19T03:19:23.631Z,16.40
2019-02-19T03:21:52.428Z,15.90
2019-02-19T03:24:21.232Z,15.90
2019-02-19T03:26:50.156Z,16.53
2019-02-19T03:29:19.115Z,16.57
2019-02-19T03:31:47.946Z,15.37
2019-02-19T03:34:16.830Z,16.50
2019-02-19T03:36:45.640Z,15.70
2019-02-19T03:39:14.498Z,15.40
2019-02-19T03:41:43.334Z,15.87
2019-02-19T03:44:12.183Z,15.47
2019-02-19T03:46:41.068Z,16.77
2019-02-19T03:49:09.911Z,15.53
2019-02-19T03:51:38.758Z,16.33
2019-02-19T03:54:07.651Z,16.80
2019-02-19T03:56:36.646Z,18.67
2019-02-19T03:59:05.560Z,16.90
2019-02-19T04:01:34.407Z,17.10
2019-02-19T04:04:03.302Z,16.40
2019-02-19T04:06:32.486Z,18.00
2019-02-19T04:09:01.307Z,16.40
2019-02-19T04:11:30.260Z,16.77
2019-02-19T04:13:59.290Z,16.77
2019-02-19T04:16:28.118Z,16.20
2019-02-19T04:18:57.204Z,15.27
2019-02-19T04:21:26.126Z,17.23
2019-02-19T04:23:54.944Z,16.33
2019-02-19T04:26:23.866Z,16.00
2019-02-19T04:28:52.800Z,18.40
2019-02-19T04:31:21.812Z,15.07
2019-02-19T04:33:50.687Z,16.37
2019-02-19T04:36:19.650Z,15.20
2019-02-19T04:38:48.542Z,17.40
2019-02-19T04:41:17.521Z,17.03
2019-02-19T04:43:46.603Z,14.80
2019-02-19T04:46:15.471Z,14.60
2019-02-19T04:48:44.342Z,14.97
2019-02-19T04:51:13.168Z,16.03
2019-02-19T04:53:41.984Z,14.60
2019-02-19T04:56:10.952Z,15.13
2019-02-19T04:58:39.824Z,15.50
2019-02-19T05:01:08.713Z,15.40
2019-02-19T05:03:37.619Z,15.20
2019-02-19T05:06:06.490Z,15.20
2019-02-19T05:08:35.554Z,15.00
2019-02-19T05:11:04.519Z,15.60
2019-02-19T05:13:33.332Z,15.27
2019-02-19T05:16:02.147Z,14.97
2019-02-19T05:18:31.002Z,15.10
2019-02-19T05:20:59.809Z,15.73
2019-02-19T05:23:28.611Z,15.17
2019-02-19T05:25:57.489Z,14.83
2019-02-19T05:28:26.426Z,15.00
2019-02-19T05:30:55.269Z,14.90
2019-02-19T05:33:24.202Z,16.03
2019-02-19T05:35:53.047Z,15.13
2019-02-19T05:38:21.897Z,15.20
2019-02-19T05:40:50.733Z,14.50
2019-02-19T05:43:19.719Z,14.23
2019-02-19T05:45:48.675Z,15.10
2019-02-19T05:48:17.465Z,15.13
2019-02-19T05:50:46.741Z,13.80
2019-02-19T05:53:15.664Z,14.80
2019-02-19T05:55:44.583Z,14.10
2019-02-19T05:58:13.502Z,14.47
2019-02-19T06:00:42.392Z,15.40
2019-02-19T06:03:11.307Z,14.87
2019-02-19T06:05:40.227Z,13.83
2019-02-19T06:08:09.104Z,14.23
2019-02-19T06:10:38.023Z,15.33
2019-02-19T06:13:06.915Z,14.10
2019-02-19T06:15:35.758Z,14.37
2019-02-19T06:18:05.641Z,14.43
2019-02-19T06:20:34.474Z,15.00
2019-02-19T06:23:03.457Z,14.53
2019-02-19T06:25:32.330Z,14.53
2019-02-19T06:28:01.183Z,14.10
2019-02-19T06:30:30.109Z,14.67
2019-02-19T06:32:59.938Z,13.77
2019-02-19T06:35:28.933Z,15.00
2019-02-19T06:37:57.761Z,15.40
2019-02-19T06:40:28.329Z,14.57
2019-02-19T06:43:00.208Z,13.23
2019-02-19T06:45:29.152Z,14.77
2019-02-19T06:47:58.293Z,14.67
2019-02-19T06:50:27.235Z,14.40
2019-02-19T06:52:56.172Z,13.90
2019-02-19T06:55:25.107Z,15.40
2019-02-19T06:57:54.061Z,14.33
2019-02-19T07:00:23.049Z,14.10
2019-02-19T07:02:57.373Z,14.87
2019-02-19T07:05:26.381Z,15.47
2019-02-19T07:07:55.337Z,14.27
2019-02-19T07:10:24.225Z,13.30
2019-02-19T07:12:53.775Z,13.57
2019-02-19T07:15:22.807Z,14.23
2019-02-19T07:17:51.847Z,14.40
2019-02-19T07:20:20.781Z,13.97
2019-02-19T07:22:49.625Z,14.00
2019-02-19T07:25:18.531Z,12.20
2019-02-19T07:27:51.494Z,12.50
2019-02-19T07:30:20.363Z,13.53
2019-02-19T07:32:49.205Z,12.83
2019-02-19T07:35:18.168Z,13.33
2019-02-19T07:37:47.109Z,12.90
2019-02-19T07:40:17.426Z,12.70
2019-02-19T07:42:46.505Z,13.77
2019-02-19T07:45:15.515Z,14.00
2019-02-19T07:47:44.444Z,13.97
2019-02-19T07:50:13.756Z,12.93
2019-02-19T07:52:42.753Z,12.00
2019-02-19T07:55:11.955Z,13.57
2019-02-19T07:57:41.054Z,12.20
2019-02-19T08:00:11.570Z,12.00
2019-02-19T08:02:42.730Z,12.40
2019-02-19T08:05:11.790Z,12.43
2019-02-19T08:07:40.714Z,12.63
2019-02-19T08:10:09.738Z,12.97
2019-02-19T08:12:38.753Z,11.70
2019-02-19T08:15:08.033Z,12.73
2019-02-19T08:17:36.890Z,12.53
2019-02-19T08:20:13.443Z,12.30
2019-02-19T08:22:36.655Z,11.53
2019-02-19T08:25:05.998Z,12.77
2019-02-19T08:27:34.954Z,12.23
2019-02-19T08:30:04.590Z,12.63
2019-02-19T08:32:33.446Z,12.00
2019-02-19T08:35:02.428Z,12.23
2019-02-19T08:37:31.331Z,11.33
2019-02-19T08:40:06.896Z,13.23
2019-02-19T08:42:35.714Z,12.97
2019-02-19T08:45:05.018Z,12.07
2019-02-19T08:47:42.281Z,12.30
2019-02-19T08:50:05.906Z,14.80
2019-02-19T08:52:34.818Z,12.97
2019-02-19T08:55:03.806Z,14.00
2019-02-19T08:57:32.629Z,13.37
2019-02-19T09:00:01.549Z,13.70
2019-02-19T09:02:30.521Z,13.83
2019-02-19T09:04:59.508Z,14.63
2019-02-19T09:07:28.330Z,14.90
2019-02-19T09:09:57.122Z,15.80
2019-02-19T09:12:25.964Z,14.83
2019-02-19T09:14:54.765Z,14.93
2019-02-19T09:17:23.618Z,16.20
2019-02-19T09:19:52.575Z,16.33
2019-02-19T09:22:21.463Z,17.10
2019-02-19T09:24:50.287Z,16.90
2019-02-19T09:27:19.130Z,16.47
2019-02-19T09:29:48.006Z,18.03
2019-02-19T09:32:16.782Z,16.60
2019-02-19T09:34:45.726Z,17.93
2019-02-19T09:37:15.642Z,17.33
2019-02-19T09:39:44.451Z,17.23
2019-02-19T09:42:13.366Z,16.73
2019-02-19T09:44:42.307Z,17.40
2019-02-19T09:47:11.319Z,16.20
2019-02-19T09:49:40.124Z,17.33
2019-02-19T09:52:09.154Z,17.83
2019-02-19T09:54:38.102Z,18.33
2019-02-19T09:57:08.095Z,19.20
2019-02-19T09:59:37.030Z,17.67
2019-02-19T10:02:05.882Z,19.00
2019-02-19T10:04:34.827Z,18.43
2019-02-19T10:07:03.742Z,19.20
2019-02-19T10:09:32.703Z,19.60
2019-02-19T10:12:01.534Z,20.00
2019-02-19T10:14:30.315Z,20.30
2019-02-19T10:16:59.361Z,20.17
2019-02-19T10:19:28.327Z,20.30
2019-02-19T10:21:57.157Z,20.77
2019-02-19T10:24:26.077Z,19.53
2019-02-19T10:26:55.025Z,19.53
2019-02-19T10:29:23.924Z,20.53
2019-02-19T10:31:52.748Z,21.67
2019-02-19T10:34:21.545Z,20.70
2019-02-19T10:36:50.471Z,19.50
2019-02-19T10:39:19.410Z,21.40
2019-02-19T10:41:48.212Z,18.97
2019-02-19T10:44:17.083Z,21.70
2019-02-19T10:46:46.007Z,20.27
2019-02-19T10:49:15.030Z,20.90
2019-02-19T10:51:43.877Z,22.03
2019-02-19T10:54:12.701Z,20.83
2019-02-19T10:56:41.657Z,20.70
2019-02-19T10:59:10.568Z,20.73
2019-02-19T11:01:54.543Z,20.73
2019-02-19T11:18:42.333Z,20.90
2019-02-19T11:21:19.307Z,20.93
2019-02-19T11:23:41.847Z,20.30
2019-02-19T11:26:10.715Z,20.57
2019-02-19T11:28:41.052Z,21.60
2019-02-19T11:31:10.365Z,18.27
2019-02-19T11:33:45.660Z,19.03
2019-02-19T11:36:14.676Z,17.80
2019-02-19T11:38:43.911Z,17.20
2019-02-19T11:41:14.305Z,17.20
2019-02-19T11:43:43.361Z,17.47
2019-02-19T11:46:12.423Z,17.10
2019-02-19T11:48:42.037Z,17.27
2019-02-19T11:51:11.357Z,18.57
2019-02-19T11:53:40.529Z,16.33
2019-02-19T11:56:09.699Z,16.40
2019-02-19T11:58:38.488Z,17.00
2019-02-19T12:01:07.530Z,16.60
2019-02-19T12:03:43.560Z,17.83
2019-02-19T12:06:14.229Z,16.97
2019-02-19T12:08:43.211Z,17.47
2019-02-19T12:11:12.077Z,14.97
2019-02-19T12:13:40.976Z,14.40
2019-02-19T12:16:09.835Z,16.03
2019-02-19T12:18:45.974Z,16.30
2019-02-19T12:21:10.665Z,15.97
2019-02-19T12:23:39.609Z,16.80
2019-02-19T12:26:08.447Z,16.13
2019-02-19T12:28:37.296Z,15.73
2019-02-19T12:31:06.243Z,16.27
2019-02-19T12:33:35.112Z,14.63
2019-02-19T12:36:04.074Z,16.90
2019-02-19T12:38:32.960Z,16.77
2019-02-19T12:41:02.175Z,17.53
2019-02-19T12:43:31.111Z,16.37
2019-02-19T12:45:59.982Z,16.73
2019-02-19T12:48:28.841Z,14.93
2019-02-19T12:50:57.849Z,17.43
2019-02-19T12:53:26.775Z,17.30
2019-02-19T12:55:55.683Z,17.07
2019-02-19T12:58:24.576Z,17.60
2019-02-19T13:00:53.368Z,16.30
2019-02-19T13:03:22.348Z,17.30
2019-02-19T13:05:51.246Z,17.67
2019-02-19T13:08:20.214Z,16.43
2019-02-19T13:10:49.224Z,17.27
2019-02-19T13:13:18.024Z,17.70
2019-02-19T13:15:46.902Z,17.03
2019-02-19T13:18:15.798Z,17.50
2019-02-19T13:20:44.596Z,18.27
2019-02-19T13:23:13.450Z,17.80
2019-02-19T13:25:42.698Z,17.77
2019-02-19T13:28:11.649Z,17.43
2019-02-19T13:30:40.621Z,15.63
2019-02-19T13:33:09.686Z,15.63
2019-02-19T13:35:38.630Z,14.57
2019-02-19T13:38:14.022Z,15.57
2019-02-19T13:40:43.148Z,14.93
2019-02-19T13:43:12.119Z,15.03
2019-02-19T13:45:40.980Z,13.53
2019-02-19T13:48:09.948Z,13.30
2019-02-19T13:50:39.103Z,11.67
2019-02-19T13:53:30.029Z,13.97
2019-02-19T13:55:59.939Z,11.53
2019-02-19T13:58:28.894Z,12.37
2019-02-19T14:00:57.756Z,11.77
2019-02-19T14:03:26.936Z,11.30
2019-02-19T14:05:55.809Z,10.83
2019-02-19T14:08:24.887Z,11.60
2019-02-19T14:10:53.714Z,11.37
2019-02-19T14:13:22.581Z,11.00
2019-02-19T14:16:01.020Z,10.53
2019-02-19T14:18:47.529Z,11.20
2019-02-19T14:21:35.430Z,10.10
2019-02-19T14:24:22.196Z,10.13
2019-02-19T14:27:08.905Z,9.23
2019-02-19T14:30:06.108Z,9.97
2019-02-19T14:32:47.113Z,11.13
2019-02-19T14:35:37.963Z,9.73
2019-02-19T14:38:35.208Z,10.20
2019-02-19T14:41:20.949Z,9.60
2019-02-19T14:44:01.219Z,9.80
2019-02-19T14:46:49.224Z,9.53
2019-02-19T14:49:37.631Z,9.37
2019-02-19T14:52:24.077Z,10.10
2019-02-19T14:55:07.733Z,9.40
2019-02-19T14:57:54.213Z,10.30
2019-02-19T15:00:42.611Z,9.90
2019-02-19T15:03:20.633Z,9.60
2019-02-19T15:06:07.453Z,10.10
2019-02-19T15:08:49.856Z,10.30
2019-02-19T15:11:47.580Z,9.90
2019-02-19T15:14:26.122Z,9.10
2019-02-19T15:17:12.577Z,10.30
2019-02-19T15:19:56.599Z,8.90
2019-02-19T15:22:44.621Z,9.37
2019-02-19T15:25:30.249Z,8.40
2019-02-19T15:28:24.417Z,9.23
2019-02-19T15:31:03.970Z,9.83
2019-02-19T15:33:54.740Z,9.43
2019-02-19T15:36:35.717Z,8.30
2019-02-19T15:39:12.188Z,8.93
2019-02-19T15:41:58.577Z,7.17
2019-02-19T15:44:45.772Z,8.07
2019-02-19T15:47:38.576Z,7.77
2019-02-19T15:50:26.783Z,8.13
2019-02-19T15:53:06.314Z,7.23
2019-02-19T15:55:57.277Z,8.13
2019-02-19T15:58:42.111Z,6.87
2019-02-19T16:01:42.061Z,7.53
2019-02-19T16:04:25.370Z,8.23
2019-02-19T16:07:10.957Z,6.90
2019-02-19T16:09:57.827Z,7.20
2019-02-19T16:12:45.835Z,7.30
2019-02-19T16:15:46.176Z,6.60
2019-02-19T16:18:27.906Z,6.50
2019-02-19T16:21:06.279Z,6.40
2019-02-19T16:23:41.860Z,6.37
2019-02-19T16:26:34.227Z,6.20
2019-02-19T16:29:26.315Z,6.53
2019-02-19T16:32:18.215Z,6.77
2019-02-19T16:35:06.247Z,7.60
2019-02-19T16:37:53.607Z,7.50
2019-02-19T16:40:36.162Z,7.93
2019-02-19T16:43:29.161Z,12.00
2019-02-19T16:46:17.235Z,9.30
2019-02-19T16:48:56.969Z,7.67
2019-02-19T16:51:38.055Z,6.37
2019-02-19T16:54:24.201Z,5.93
2019-02-19T16:57:15.277Z,5.90
2019-02-19T17:00:09.030Z,5.87
2019-02-19T17:02:54.424Z,5.40
2019-02-19T17:05:44.507Z,5.57
2019-02-19T17:08:28.414Z,5.37
2019-02-19T17:11:05.909Z,6.07
2019-02-19T17:13:47.326Z,5.10
2019-02-19T17:16:47.260Z,5.43
2019-02-19T17:19:38.037Z,5.70
2019-02-19T17:22:24.652Z,5.80
2019-02-19T17:25:02.212Z,5.80
2019-02-19T17:27:37.168Z,5.17
2019-02-19T17:30:28.392Z,5.40
2019-02-19T17:33:11.132Z,5.30
2019-02-19T17:35:47.584Z,5.20
2019-02-19T17:38:44.460Z,4.43
2019-02-19T17:41:21.536Z,4.63
2019-02-19T17:44:09.590Z,4.30
2019-02-19T17:46:55.161Z,4.30
2019-02-19T17:49:37.780Z,5.20
2019-02-19T17:52:15.856Z,4.70
2019-02-19T17:54:58.014Z,3.90
2019-02-19T17:57:37.188Z,4.20
2019-02-19T18:00:30.815Z,3.90
2019-02-19T18:03:09.509Z,4.27
2019-02-19T18:05:45.094Z,3.27
2019-02-19T18:08:39.170Z,4.03
2019-02-19T18:11:22.986Z,3.90
2019-02-19T18:14:13.814Z,3.57
2019-02-19T18:17:00.356Z,3.73
2019-02-19T18:19:29.570Z,3.73
2019-02-19T18:21:58.635Z,3.40
2019-02-19T18:24:27.626Z,3.60
2019-02-19T18:26:56.608Z,3.40
2019-02-19T18:29:25.674Z,3.17
2019-02-19T18:31:54.578Z,4.13
2019-02-19T18:34:23.592Z,3.43
2019-02-19T18:36:52.532Z,3.87
2019-02-19T18:39:21.398Z,2.90
2019-02-19T18:41:50.378Z,3.30
2019-02-19T18:44:19.286Z,3.03
2019-02-19T18:46:48.396Z,3.60
2019-02-19T18:49:17.446Z,3.17
2019-02-19T18:51:46.352Z,3.90
2019-02-19T18:54:15.260Z,3.63
2019-02-19T18:56:44.510Z,3.00
2019-02-19T18:59:13.431Z,3.70
2019-02-19T19:01:42.605Z,3.80
2019-02-19T19:04:11.464Z,3.57
2019-02-19T19:06:40.446Z,3.53
2019-02-19T19:09:09.519Z,3.43
2019-02-19T19:11:38.410Z,3.90
2019-02-19T19:14:07.435Z,3.97
2019-02-19T19:16:36.397Z,2.90
2019-02-19T19:19:05.311Z,2.93
2019-02-19T19:21:34.409Z,3.63
2019-02-19T19:24:03.404Z,3.40
2019-02-19T19:26:32.384Z,3.80
2019-02-19T19:29:01.335Z,2.93
2019-02-19T19:31:33.462Z,4.77
2019-02-19T19:34:00.838Z,3.80
2019-02-19T19:36:29.966Z,4.30
2019-02-19T19:38:58.797Z,5.27
2019-02-19T19:41:28.131Z,4.93
2019-02-19T19:43:57.106Z,5.60
2019-02-19T19:46:26.011Z,5.87
2019-02-19T19:48:54.897Z,5.60
2019-02-19T19:51:23.821Z,5.17
2019-02-19T19:53:52.817Z,5.70
2019-02-19T19:56:21.730Z,5.50
2019-02-19T19:58:50.841Z,6.30
2019-02-19T20:01:20.481Z,6.37
2019-02-19T20:03:49.866Z,6.10
2019-02-19T20:06:18.750Z,5.93
2019-02-19T20:08:47.771Z,5.73
2019-02-19T20:11:16.787Z,5.40
2019-02-19T20:13:45.858Z,5.80
2019-02-19T20:16:15.187Z,5.30
2019-02-19T20:18:44.316Z,6.50
2019-02-19T20:21:13.352Z,6.57
2019-02-19T20:23:42.219Z,5.80
2019-02-19T20:26:11.238Z,6.80
2019-02-19T20:28:40.181Z,6.40
2019-02-19T20:31:09.199Z,6.03
2019-02-19T20:33:38.164Z,6.40
2019-02-19T20:36:07.443Z,7.77
2019-02-19T20:38:36.329Z,7.20
2019-02-19T20:41:05.358Z,7.27
2019-02-19T20:43:34.346Z,7.30
2019-02-19T20:46:03.301Z,6.97
2019-02-19T20:48:32.451Z,7.57
2019-02-19T20:51:01.413Z,9.00
2019-02-19T20:53:30.375Z,7.73
2019-02-19T20:55:59.496Z,7.80
2019-02-19T20:58:30.490Z,7.90
2019-02-19T21:00:59.684Z,8.47
2019-02-19T21:03:28.989Z,7.97
2019-02-19T21:05:58.258Z,8.50
2019-02-19T21:08:27.648Z,8.40
2019-02-19T21:10:56.858Z,8.87
2019-02-19T21:13:26.329Z,8.70
2019-02-19T21:15:55.431Z,9.20
2019-02-19T21:18:25.044Z,9.87
2019-02-19T21:20:54.259Z,8.63
2019-02-19T21:23:23.747Z,7.73
2019-02-19T21:25:52.761Z,8.07
2019-02-19T21:28:21.582Z,6.83
2019-02-19T21:30:50.606Z,6.50
2019-02-19T21:33:19.740Z,7.30
2019-02-19T21:35:48.923Z,6.67
2019-02-19T21:38:17.900Z,6.13
2019-02-19T21:40:46.790Z,6.00
2019-02-19T21:43:15.895Z,5.60
2019-02-19T21:45:44.790Z,4.63
2019-02-19T21:48:13.743Z,5.20
2019-02-19T21:50:43.338Z,5.30
2019-02-19T21:53:12.390Z,4.70
2019-02-19T21:55:41.324Z,4.53
2019-02-19T21:58:11.234Z,4.83
2019-02-19T22:00:40.217Z,4.70
2019-02-19T22:05:58.890Z,4.13
2019-02-19T22:08:28.154Z,3.10
2019-02-19T22:11:56.841Z,3.57
2019-02-19T22:14:29.503Z,3.50
2019-02-19T22:20:34.143Z,3.33
2019-02-19T22:23:10.010Z,2.67
2019-02-19T22:25:39.635Z,3.00
2019-02-19T22:28:10.165Z,2.97
2019-02-19T22:30:40.414Z,2.90
2019-02-19T22:33:10.616Z,2.80
2019-02-19T22:35:39.854Z,2.60
2019-02-19T22:38:15.047Z,2.23
2019-02-19T22:40:45.296Z,2.50
2019-02-19T22:43:15.363Z,3.63
2019-02-19T22:45:44.924Z,3.10
2019-02-19T22:48:14.773Z,2.87
2019-02-19T22:50:47.100Z,2.80
2019-02-19T22:53:34.646Z,2.90
2019-02-19T22:56:09.468Z,3.33
2019-02-19T22:58:38.696Z,3.70
2019-02-19T23:01:20.640Z,4.50
2019-02-19T23:03:53.848Z,3.77
2019-02-19T23:06:26.708Z,4.00
2019-02-19T23:08:56.014Z,4.30
2019-02-19T23:11:25.738Z,4.30
2019-02-19T23:13:56.464Z,4.67
2019-02-19T23:16:25.992Z,4.60
2019-02-19T23:18:55.066Z,5.43
2019-02-19T23:21:31.592Z,5.77
2019-02-19T23:24:00.834Z,6.20
2019-02-19T23:26:44.632Z,5.63
2019-02-19T23:29:14.892Z,4.87
2019-02-19T23:31:45.125Z,6.27
2019-02-19T23:34:19.342Z,6.10
2019-02-19T23:36:57.046Z,6.50
2019-02-19T23:39:26.570Z,6.00
2019-02-19T23:41:56.022Z,6.90
2019-02-19T23:44:27.605Z,6.70
2019-02-19T23:46:59.169Z,6.80
2019-02-19T23:49:31.931Z,7.63
2019-02-19T23:52:03.746Z,7.17
2019-02-19T23:54:34.732Z,8.43
2019-02-19T23:57:04.438Z,7.77
2019-02-19T23:59:39.584Z,8.83
